Time;durP1;ratioP1;P1;durP2;ratioP2;P2;SDS_P1;SDS_P2;PMS_P1;PMS_P2;Temp;Humidity;BMP_temperature;BMP_pressure;BME280_temperature;BME280_humidity;BME280_pressure;Samples;Min_cycle;Max_cycle;Signal;HPM_P1;HPM_P2
2023/03/21 16:04:57;;;;;;;;;;;;;;;14.65;56.53;96785.00;4221576;27;10418;-71
2023/03/21 16:07:03;;;;;;;;;;;;;;;14.97;56.12;96788.38;4207234;28;5776;-72
2023/03/21 16:09:20;;;;;;;;;;;;;;;15.16;55.63;96782.00;4208249;28;5784;-71
2023/03/21 16:11:27;;;;;;;;;;;;;;;15.37;55.58;96786.88;4209935;28;5705;-71
2023/03/21 16:13:31;;;;;;;;;;;;;;;15.51;55.37;96784.88;4211242;28;5796;-69
2023/03/21 16:15:36;;;;;;;;;;;;;;;15.62;55.17;96780.66;4212471;28;5689;-70
2023/03/21 16:17:50;;;;;;;;;;;;;;;15.66;55.27;96785.34;4211407;28;5728;-69
2023/03/21 16:19:54;;;;;;;;;;;;;;;15.78;55.17;96784.56;4214492;28;5796;-71
2023/03/21 16:22:00;;;;;;;;;;;;;;;15.85;54.75;96787.94;4202663;28;5937;-71
2023/03/21 16:24:04;;;;;;;;;;;;;;;15.90;54.58;96790.75;4198924;28;5764;-70
2023/03/21 16:26:10;;;;;;;;;;;;;;;15.95;54.40;96786.34;4205408;28;5685;-71
2023/03/21 16:28:16;;;;;;;;;;;;;;;15.98;54.37;96791.25;4204848;28;6509;-69
2023/03/21 16:30:22;;;;;;;;;;;;;;;15.95;54.27;96782.88;4206643;28;5813;-70
2023/03/21 16:32:25;;;;;;;;;;;;;;;16.05;54.29;96785.00;4196366;28;5896;-70
2023/03/21 16:34:30;;;;;;;;;;;;;;;16.05;54.31;96783.13;4204844;28;5794;-73
2023/03/21 16:36:37;;;;;;;;;;;;;;;16.08;54.11;96785.34;4204714;28;6094;-71
2023/03/21 16:38:42;;;;;;;;;;;;;;;16.13;53.95;96784.69;4212890;28;7161;-71
2023/03/21 16:40:45;;;;;;;;;;;;;;;16.14;54.01;96780.97;4206892;28;5903;-70
2023/03/21 16:42:49;;;;;;;;;;;;;;;16.13;53.96;96785.50;4209300;28;6531;-69
2023/03/21 16:44:52;;;;;;;;;;;;;;;16.08;53.94;96782.69;4206400;28;5777;-71
2023/03/21 16:46:55;;;;;;;;;;;;;;;16.13;53.68;96785.50;4203675;28;5837;-72
2023/03/21 16:48:58;;;;;;;;;;;;;;;16.13;53.68;96793.50;4209767;28;5974;-71
2023/03/21 16:51:01;;;;;;;;;;;;;;;16.13;53.58;96796.16;4213069;28;6619;-68
2023/03/21 16:53:04;;;;;;;;;;;;;;;16.12;53.57;96794.53;4212227;28;5689;-71
2023/03/21 16:55:08;;;;;;;;;;;;;;;16.09;53.40;96789.66;4207483;28;5775;-71
2023/03/21 16:57:21;;;;;;;;;;;;;;;16.10;53.32;96788.63;4198843;28;5693;-72
2023/03/21 16:59:24;;;;;;;;;;;;;;;16.08;53.32;96796.00;4209918;28;5664;-67
2023/03/21 17:01:28;;;;;;;;;;;;;;;16.09;53.14;96789.66;4208070;28;6003;-71
2023/03/21 17:03:33;;;;;;;;;;;;;;;16.09;52.97;96792.34;4210219;28;5685;-72
2023/03/21 17:05:36;;;;;;;;;;;;;;;16.09;53.05;96797.66;4200692;28;5752;-72
2023/03/21 17:07:40;;;;;;;;;;;;;;;16.09;53.07;96800.31;4199039;28;5697;-69
2023/03/21 17:09:43;;;;;;;;;;;;;;;16.08;52.85;96801.34;4193112;28;5789;-69
2023/03/21 17:11:48;;;;;;;;;;;;;;;16.08;52.91;96797.88;4202647;28;5681;-69
2023/03/21 17:13:52;;;;;;;;;;;;;;;16.08;53.00;96803.19;4194926;28;5785;-70
2023/03/21 17:15:55;;;;;;;;;;;;;;;16.08;52.89;96809.34;4199932;28;5101;-69
2023/03/21 17:17:58;;;;;;;;;;;;;;;16.06;52.91;96805.28;4200949;28;5843;-70
2023/03/21 17:20:03;;;;;;;;;;;;;;;16.05;52.72;96811.66;4197457;28;5756;-70
2023/03/21 17:22:06;;;;;;;;;;;;;;;16.03;52.67;96803.91;4201387;28;5781;-69
2023/03/21 17:24:09;;;;;;;;;;;;;;;16.01;52.82;96805.97;4200642;28;5816;-70
2023/03/21 17:26:13;;;;;;;;;;;;;;;16.00;52.80;96807.03;4201589;28;5693;-70
2023/03/21 17:28:17;;;;;;;;;;;;;;;15.99;52.67;96806.22;4192572;28;5949;-69
2023/03/21 17:30:22;;;;;;;;;;;;;;;15.98;52.93;96806.44;4195697;28;5733;-69
2023/03/21 17:32:25;;;;;;;;;;;;;;;15.97;52.79;96815.47;4191602;28;5796;-68
2023/03/21 17:34:28;;;;;;;;;;;;;;;15.97;52.70;96816.28;4193367;28;5874;-69
2023/03/21 17:36:33;;;;;;;;;;;;;;;15.95;52.83;96815.69;4200473;28;5720;-69
2023/03/21 17:38:36;;;;;;;;;;;;;;;15.95;52.72;96818.34;4196460;28;5853;-69
2023/03/21 17:40:39;;;;;;;;;;;;;;;15.93;52.71;96820.44;4198037;28;5118;-68
2023/03/21 17:42:43;;;;;;;;;;;;;;;15.91;52.68;96811.84;4198859;28;5697;-69
2023/03/21 17:44:47;;;;;;;;;;;;;;;15.90;52.54;96817.41;4195044;28;6613;-69
2023/03/21 17:46:50;;;;;;;;;;;;;;;15.89;52.72;96808.59;4197262;28;5798;-69
2023/03/21 17:48:54;;;;;;;;;;;;;;;15.85;52.53;96811.94;4187684;28;5965;-70
2023/03/21 17:50:57;;;;;;;;;;;;;;;15.84;52.50;96812.97;4199784;28;5945;-69
2023/03/21 17:53:00;;;;;;;;;;;;;;;15.81;52.59;96816.09;4194324;28;5768;-70
2023/03/21 17:55:04;;;;;;;;;;;;;;;15.79;52.45;96826.16;4199063;28;5697;-70
2023/03/21 17:57:10;;;;;;;;;;;;;;;15.76;52.55;96827.44;4199768;28;5697;-69
2023/03/21 17:59:14;;;;;;;;;;;;;;;15.72;52.44;96816.41;4193212;28;5901;-70
2023/03/21 18:01:18;;;;;;;;;;;;;;;15.70;52.38;96821.16;4198021;28;5784;-70
2023/03/21 18:03:21;;;;;;;;;;;;;;;15.67;52.63;96820.78;4198815;28;5686;-69
2023/03/21 18:05:26;;;;;;;;;;;;;;;15.67;52.57;96821.59;4196966;28;6411;-69
2023/03/21 18:07:29;;;;;;;;;;;;;;;15.64;52.74;96819.41;4195965;28;5836;-69
2023/03/21 18:09:52;;;;;;;;;;;;;;;15.62;52.64;96823.28;4198069;28;5681;-69
2023/03/21 18:11:55;;;;;;;;;;;;;;;15.61;52.56;96822.47;4198550;28;5814;-69
2023/03/21 18:13:58;;;;;;;;;;;;;;;15.60;52.76;96830.69;4198781;28;5925;-69
2023/03/21 18:16:19;;;;;;;;;;;;;;;15.58;52.83;96832.75;4197827;28;5689;-70
2023/03/21 18:18:25;;;;;;;;;;;;;;;15.56;52.58;96822.31;4197750;28;5714;-69
2023/03/21 18:20:28;;;;;;;;;;;;;;;15.52;52.75;96829.16;4201814;28;5697;-70
2023/03/21 18:22:51;;;;;;;;;;;;;;;15.50;52.57;96825.06;4201510;28;5755;-70
2023/03/21 18:24:56;;;;;;;;;;;;;;;15.46;52.64;96826.53;4197509;28;5792;-70
2023/03/21 18:26:59;;;;;;;;;;;;;;;15.43;52.59;96828.63;4207324;28;5812;-69
2023/03/21 18:29:03;;;;;;;;;;;;;;;15.41;52.67;96829.91;4200730;28;5851;-70
2023/03/21 18:31:27;;;;;;;;;;;;;;;15.41;52.68;96828.03;4193264;28;5852;-70
2023/03/21 18:33:30;;;;;;;;;;;;;;;15.39;52.74;96823.94;4194374;28;5769;-71
2023/03/21 18:35:33;;;;;;;;;;;;;;;15.36;52.45;96825.22;4193336;28;5705;-70
2023/03/21 18:37:36;;;;;;;;;;;;;;;15.32;52.40;96820.56;4197382;28;6375;-70
2023/03/21 18:39:41;;;;;;;;;;;;;;;15.31;52.61;96821.59;4199535;28;5792;-69
2023/03/21 18:41:44;;;;;;;;;;;;;;;15.31;52.33;96824.25;4198092;28;5713;-70
2023/03/21 18:43:48;;;;;;;;;;;;;;;15.30;52.60;96830.63;4196846;28;5709;-70
2023/03/21 18:46:11;;;;;;;;;;;;;;;15.30;52.48;96833.28;4197096;28;5717;-71
2023/03/21 18:48:16;;;;;;;;;;;;;;;15.29;52.52;96827.16;4196920;28;5796;-69
2023/03/21 18:50:20;;;;;;;;;;;;;;;15.32;52.39;96831.22;4194984;28;5746;-69
2023/03/21 18:52:24;;;;;;;;;;;;;;;15.35;52.53;96825.44;4199208;28;5760;-71
2023/03/21 18:54:28;;;;;;;;;;;;;;;15.37;52.37;96834.00;4197809;28;5900;-70
2023/03/21 18:56:30;;;;;;;;;;;;;;;15.37;52.51;96839.34;4198008;28;5915;-69
2023/03/21 18:58:55;;;;;;;;;;;;;;;15.38;52.46;96838.31;4196560;28;5773;-69
2023/03/21 19:00:58;;;;;;;;;;;;;;;15.38;52.59;96836.44;4198275;28;5940;-71
2023/03/21 19:03:02;;;;;;;;;;;;;;;15.38;52.46;96840.97;4200016;28;5879;-70
2023/03/21 19:05:24;;;;;;;;;;;;;;;15.39;52.50;96837.25;4194176;28;5733;-70
2023/03/21 19:07:27;;;;;;;;;;;;;;;15.39;52.66;96845.25;4199191;28;5772;-70
2023/03/21 19:09:30;;;;;;;;;;;;;;;15.40;52.22;96846.88;4203834;28;5697;-70
2023/03/21 19:11:34;;;;;;;;;;;;;;;15.38;52.34;96843.63;4198419;28;5114;-72
2023/03/21 19:13:37;;;;;;;;;;;;;;;15.36;52.40;96840.38;4191281;28;5780;-79
2023/03/21 19:15:41;;;;;;;;;;;;;;;15.35;52.49;96844.91;4192962;28;5964;-78
2023/03/21 19:17:44;;;;;;;;;;;;;;;15.38;52.28;96846.28;4202431;28;5680;-74
2023/03/21 19:20:07;;;;;;;;;;;;;;;15.41;52.24;96849.34;4195746;28;5753;-76
2023/03/21 19:22:12;;;;;;;;;;;;;;;15.43;52.29;96854.44;4200858;28;5821;-76
2023/03/21 19:24:15;;;;;;;;;;;;;;;15.43;52.33;96846.47;4198710;28;5682;-76
2023/03/21 19:26:29;;;;;;;;;;;;;;;15.43;52.22;96857.13;4199525;28;5690;-73
2023/03/21 19:28:32;;;;;;;;;;;;;;;15.40;52.18;96850.38;4199152;28;5689;-73
2023/03/21 19:30:35;;;;;;;;;;;;;;;15.41;52.21;96848.53;4198131;28;6698;-74
2023/03/21 19:32:38;;;;;;;;;;;;;;;15.38;52.01;96847.09;4198621;28;6185;-75
2023/03/21 19:34:41;;;;;;;;;;;;;;;15.39;52.25;96851.41;4199272;28;5685;-74
2023/03/21 19:36:45;;;;;;;;;;;;;;;15.39;51.96;96847.91;4195437;28;5723;-74
2023/03/21 19:38:59;;;;;;;;;;;;;;;15.38;52.01;96847.09;4200056;28;5686;-76
2023/03/21 19:41:02;;;;;;;;;;;;;;;15.38;51.75;96854.28;4199034;28;5782;-78
2023/03/21 19:43:07;;;;;;;;;;;;;;;15.37;51.79;96853.47;4190687;28;5945;-78
2023/03/21 19:45:30;;;;;;;;;;;;;;;15.36;51.91;96846.53;4195221;28;5806;-80
2023/03/21 19:47:32;;;;;;;;;;;;;;;15.36;51.95;96853.69;4198484;28;5734;-78
2023/03/21 19:49:39;;;;;;;;;;;;;;;15.33;51.94;96840.84;4195784;28;6427;-81
2023/03/21 19:52:02;;;;;;;;;;;;;;;15.30;51.58;96843.94;4197655;28;5797;-70
2023/03/21 19:54:06;;;;;;;;;;;;;;;15.33;51.61;96851.50;4196220;28;5747;-72
2023/03/21 19:56:09;;;;;;;;;;;;;;;15.30;51.71;96844.75;4196275;28;5796;-80
2023/03/21 19:58:24;;;;;;;;;;;;;;;15.32;51.69;96841.88;4191532;28;5714;-75
2023/03/21 20:00:27;;;;;;;;;;;;;;;15.29;51.62;96850.28;4193636;28;5904;-74
2023/03/21 20:02:30;;;;;;;;;;;;;;;15.28;51.76;96848.66;4196537;28;5689;-68
2023/03/21 20:04:38;;;;;;;;;;;;;;;15.27;51.56;96847.03;4198878;28;5701;-70
2023/03/21 20:06:41;;;;;;;;;;;;;;;15.28;51.49;96848.66;4191230;28;5690;-70
2023/03/21 20:08:44;;;;;;;;;;;;;;;15.25;51.62;96843.78;4190917;28;5868;-70
2023/03/21 20:11:09;;;;;;;;;;;;;;;15.27;51.67;96852.34;4195700;28;5723;-71
2023/03/21 20:13:12;;;;;;;;;;;;;;;15.25;51.76;96843.78;4196339;28;5827;-75
2023/03/21 20:15:17;;;;;;;;;;;;;;;15.23;51.61;96843.19;4199808;28;5682;-73
2023/03/21 20:17:23;;;;;;;;;;;;;;;15.21;51.47;96840.75;4185113;28;5871;-79
2023/03/21 20:19:26;;;;;;;;;;;;;;;15.20;51.65;96841.78;4189772;28;5719;-82
2023/03/21 20:21:29;;;;;;;;;;;;;;;15.20;51.56;96851.63;4198924;28;5772;-80
2023/03/21 20:23:48;;;;;;;;;;;;;;;15.19;51.44;96852.66;4191056;28;6419;-80
2023/03/21 20:25:51;;;;;;;;;;;;;;;15.19;51.15;96847.34;4197871;28;5718;-75
2023/03/21 20:27:55;;;;;;;;;;;;;;;15.17;51.16;96854.72;4199378;28;5688;-71
2023/03/21 20:30:18;;;;;;;;;;;;;;;15.17;51.15;96852.06;4192641;28;7140;-72
2023/03/21 20:32:21;;;;;;;;;;;;;;;15.15;51.31;96855.75;4199394;28;5693;-73
2023/03/21 20:34:24;;;;;;;;;;;;;;;15.13;51.34;96855.16;4192904;28;5778;-73
2023/03/21 20:36:27;;;;;;;;;;;;;;;15.12;51.04;96866.84;4196331;28;5697;-74
2023/03/21 20:38:46;;;;;;;;;;;;;;;15.11;51.04;96864.41;4188079;28;5885;-73
2023/03/21 20:40:48;;;;;;;;;;;;;;;15.08;51.17;96860.34;4194455;28;5756;-73
2023/03/21 20:42:54;;;;;;;;;;;;;;;15.05;51.17;96860.75;4202733;28;5697;-74
2023/03/21 20:44:58;;;;;;;;;;;;;;;15.04;50.85;96860.97;4194750;28;5798;-77
2023/03/21 20:47:04;;;;;;;;;;;;;;;15.01;51.03;96851.59;4201977;28;5662;-80
2023/03/21 20:49:07;;;;;;;;;;;;;;;15.02;51.04;96852.41;4196957;28;5827;-82
2023/03/21 20:51:12;;;;;;;;;;;;;;;15.03;51.13;96868.16;4201226;28;5816;-77
2023/03/21 20:53:36;;;;;;;;;;;;;;;15.03;51.01;96865.50;4203714;28;5839;-81
2023/03/21 20:55:40;;;;;;;;;;;;;;;15.02;51.09;96871.84;4204418;28;5724;-80
2023/03/21 20:57:43;;;;;;;;;;;;;;;15.03;51.03;96868.16;4199205;28;5767;-75
2023/03/21 20:59:46;;;;;;;;;;;;;;;15.04;50.94;96868.97;4200688;28;5757;-77
2023/03/21 21:01:50;;;;;;;;;;;;;;;15.02;51.09;96866.53;4197682;28;5705;-77
2023/03/21 21:03:55;;;;;;;;;;;;;;;15.02;51.03;96865.72;4203267;28;5697;-80
2023/03/21 21:05:59;;;;;;;;;;;;;;;15.02;51.01;96866.53;4202679;28;5731;-81
2023/03/21 21:08:03;;;;;;;;;;;;;;;15.02;50.77;96860.41;4203438;28;6402;-80
2023/03/21 21:10:08;;;;;;;;;;;;;;;15.03;50.91;96864.69;4201626;28;5793;-74
2023/03/21 21:12:12;;;;;;;;;;;;;;;15.02;50.66;96860.41;4206595;28;5789;-76
2023/03/21 21:14:16;;;;;;;;;;;;;;;15.02;50.77;96855.88;4200013;28;5685;-75
2023/03/21 21:16:19;;;;;;;;;;;;;;;15.03;50.82;96867.34;4192652;28;5817;-77
2023/03/21 21:18:24;;;;;;;;;;;;;;;15.04;50.90;96856.47;4191693;28;5098;-73
2023/03/21 21:20:32;;;;;;;;;;;;;;;15.05;50.63;96858.09;4193205;28;5674;-73
2023/03/21 21:22:35;;;;;;;;;;;;;;;15.05;50.82;96862.63;4198306;28;5705;-74
2023/03/21 21:25:18;;;;;;;;;;;;;;;15.07;50.62;96857.91;4192233;28;5191;-70
2023/03/21 21:27:21;;;;;;;;;;;;;;;15.06;50.51;96849.09;4193787;28;5928;-83
2023/03/21 21:29:24;;;;;;;;;;;;;;;15.08;50.76;96859.53;4198750;28;5860;-72
2023/03/21 21:31:27;;;;;;;;;;;;;;;15.10;50.77;96858.28;4201810;28;5681;-78
2023/03/21 21:33:33;;;;;;;;;;;;;;;15.10;50.49;96852.94;4200307;28;5784;-74
2023/03/21 21:35:35;;;;;;;;;;;;;;;15.10;50.71;96850.28;4193918;28;5697;-75
2023/03/21 21:37:40;;;;;;;;;;;;;;;15.11;50.55;96849.25;4191244;28;5787;-72
2023/03/21 21:39:44;;;;;;;;;;;;;;;15.13;50.63;96847.16;4195535;28;5765;-72
2023/03/21 21:41:47;;;;;;;;;;;;;;;15.14;50.52;96843.47;4200303;28;5698;-71
2023/03/21 21:43:50;;;;;;;;;;;;;;;15.16;50.31;96845.91;4193455;28;5920;-72
2023/03/21 21:45:54;;;;;;;;;;;;;;;15.17;50.32;96842.22;4201626;28;5239;-75
2023/03/21 21:47:57;;;;;;;;;;;;;;;15.19;50.55;96855.34;4196491;28;7750;-77
2023/03/21 21:50:01;;;;;;;;;;;;;;;15.20;50.42;96856.97;4198549;28;5715;-73
2023/03/21 21:52:05;;;;;;;;;;;;;;;15.20;50.20;96852.44;4200192;28;5681;-73
2023/03/21 21:54:07;;;;;;;;;;;;;;;15.20;50.47;96859.63;4201383;28;6564;-72
2023/03/21 21:56:10;;;;;;;;;;;;;;;15.19;50.22;96856.16;4201038;28;5856;-72
2023/03/21 21:58:17;;;;;;;;;;;;;;;15.17;50.44;96855.53;4198371;28;5706;-71
2023/03/21 22:00:20;;;;;;;;;;;;;;;15.17;50.50;96852.06;4200118;28;5694;-83
2023/03/21 22:02:24;;;;;;;;;;;;;;;15.15;50.39;96845.09;4198181;28;5900;-76
2023/03/21 22:04:27;;;;;;;;;;;;;;;15.17;50.45;96852.06;4199477;28;5834;-76
2023/03/21 22:06:31;;;;;;;;;;;;;;;15.15;50.63;96854.94;4201792;28;5685;-76
2023/03/21 22:08:35;;;;;;;;;;;;;;;15.13;50.61;96847.16;4198762;28;5758;-79
2023/03/21 22:10:37;;;;;;;;;;;;;;;15.12;50.72;96848.22;4199265;28;5730;-73
2023/03/21 22:12:41;;;;;;;;;;;;;;;15.14;50.48;96856.78;4202146;28;5689;-74
2023/03/21 22:14:44;;;;;;;;;;;;;;;15.11;50.53;96849.25;4202930;28;5756;-76
